Time;durP1;ratioP1;P1;durP2;ratioP2;P2;SDS_P1;SDS_P2;PMS_P1;PMS_P2;Temp;Humidity;BMP_temperature;BMP_pressure;BME280_temperature;BME280_humidity;BME280_pressure;Samples;Min_cycle;Max_cycle;Signal;HPM_P1;HPM_P2
2021/04/07 00:01:46;;;;;;;3.45;0.50;;;1.80;99.90;;;;;;5024098;28;20033;-65
2021/04/07 00:04:12;;;;;;;2.03;0.30;;;1.60;99.90;;;;;;5023108;28;20041;-65
2021/04/07 00:06:40;;;;;;;1.25;0.10;;;1.60;99.90;;;;;;5023736;28;20035;-65
2021/04/07 00:09:07;;;;;;;9.65;1.00;;;1.50;99.90;;;;;;5017513;28;20038;-64
2021/04/07 00:11:32;;;;;;;5.30;0.57;;;1.40;99.90;;;;;;5019858;28;20057;-65
2021/04/07 00:13:59;;;;;;;2.17;0.38;;;1.40;99.90;;;;;;5019956;28;20033;-64
2021/04/07 00:16:25;;;;;;;2.78;0.40;;;1.30;99.90;;;;;;5020601;28;20398;-65
2021/04/07 00:18:50;;;;;;;1.83;0.43;;;1.30;99.90;;;;;;5019004;28;20030;-64
2021/04/07 00:21:16;;;;;;;2.28;0.45;;;1.20;99.90;;;;;;5022519;28;20037;-62
2021/04/07 00:23:42;;;;;;;5.55;0.98;;;1.20;99.90;;;;;;5018374;28;20167;-64
2021/04/07 00:26:07;;;;;;;2.35;0.40;;;1.20;99.90;;;;;;5016403;28;20044;-65
2021/04/07 00:28:33;;;;;;;4.43;0.60;;;1.20;99.90;;;;;;5021179;28;20054;-64
2021/04/07 00:30:58;;;;;;;2.55;0.45;;;1.20;99.90;;;;;;5020175;28;20052;-64
2021/04/07 00:33:24;;;;;;;2.50;0.40;;;1.20;99.90;;;;;;5020623;28;20068;-64
2021/04/07 00:35:50;;;;;;;4.88;1.17;;;1.30;99.90;;;;;;5020651;28;20034;-64
2021/04/07 00:38:15;;;;;;;2.08;0.47;;;1.30;99.90;;;;;;5020665;28;20172;-67
2021/04/07 00:40:41;;;;;;;4.28;0.40;;;1.30;99.90;;;;;;5022147;28;20037;-64
2021/04/07 00:43:06;;;;;;;9.07;1.75;;;1.30;99.90;;;;;;5004686;28;20029;-64
2021/04/07 00:45:32;;;;;;;5.10;0.93;;;1.30;99.90;;;;;;5018928;28;20104;-63
2021/04/07 00:47:58;;;;;;;3.70;0.40;;;1.30;99.90;;;;;;5026085;28;20034;-64
2021/04/07 00:50:26;;;;;;;5.43;0.50;;;1.40;99.90;;;;;;5020155;28;20025;-64
2021/04/07 00:52:52;;;;;;;4.45;0.40;;;1.40;99.90;;;;;;5019780;28;20029;-64
2021/04/07 00:55:20;;;;;;;1.88;0.35;;;1.40;99.90;;;;;;5020284;28;20391;-64
2021/04/07 00:57:47;;;;;;;1.90;0.35;;;1.40;99.90;;;;;;5021189;28;20069;-64
2021/04/07 01:00:14;;;;;;;4.70;1.20;;;1.40;99.90;;;;;;5016937;28;20080;-65
2021/04/07 01:02:40;;;;;;;2.35;0.57;;;1.40;99.90;;;;;;5018023;28;20044;-64
2021/04/07 01:05:08;;;;;;;3.25;0.65;;;1.50;99.90;;;;;;5017576;28;20046;-65
2021/04/07 01:07:34;;;;;;;2.05;0.40;;;1.50;99.90;;;;;;5020644;28;20072;-64
2021/04/07 01:10:00;;;;;;;3.72;0.47;;;1.50;99.90;;;;;;5021131;28;20064;-64
2021/04/07 01:12:25;;;;;;;4.80;0.57;;;1.50;99.90;;;;;;5020113;28;20057;-64
2021/04/07 01:14:51;;;;;;;5.25;1.33;;;1.50;99.90;;;;;;5019215;28;20042;-64
2021/04/07 01:17:18;;;;;;;6.38;1.15;;;1.50;99.90;;;;;;5018124;28;20036;-63
2021/04/07 01:19:44;;;;;;;5.35;0.68;;;1.50;99.90;;;;;;5019374;28;20034;-64
2021/04/07 01:22:10;;;;;;;4.40;1.27;;;1.50;99.90;;;;;;5024091;28;20564;-64
2021/04/07 01:24:37;;;;;;;8.77;1.10;;;1.60;99.90;;;;;;5020440;28;20029;-63
2021/04/07 01:27:03;;;;;;;6.22;1.23;;;1.60;99.90;;;;;;5018855;28;20121;-65
2021/04/07 01:29:28;;;;;;;6.68;0.80;;;1.60;99.90;;;;;;5022288;28;20117;-64
2021/04/07 01:31:55;;;;;;;5.45;1.15;;;1.60;99.90;;;;;;5020720;28;20706;-63
2021/04/07 01:34:29;;;;;;;3.17;0.47;;;1.60;99.90;;;;;;5015334;28;20290;-63
2021/04/07 01:36:56;;;;;;;8.90;1.95;;;1.60;99.90;;;;;;5017784;28;20037;-65
2021/04/07 01:39:24;;;;;;;12.82;1.48;;;1.60;99.90;;;;;;5015492;28;20398;-65
2021/04/07 01:41:50;;;;;;;5.55;1.00;;;1.50;99.90;;;;;;5018086;28;20033;-65
2021/04/07 01:44:17;;;;;;;7.57;1.08;;;1.50;99.90;;;;;;5017010;28;20034;-63
2021/04/07 01:46:44;;;;;;;6.53;0.50;;;1.50;99.90;;;;;;5019144;28;20045;-65
2021/04/07 01:49:11;;;;;;;13.90;1.50;;;1.40;99.90;;;;;;5019161;28;20129;-62
2021/04/07 01:51:37;;;;;;;4.43;0.65;;;1.40;99.90;;;;;;5018132;28;20427;-65
2021/04/07 01:54:10;;;;;;;3.70;0.80;;;1.30;99.90;;;;;;5022544;28;20037;-65
2021/04/07 01:56:48;;;;;;;6.35;0.98;;;1.20;99.90;;;;;;4995887;28;20034;-65
2021/04/07 01:59:16;;;;;;;6.40;1.23;;;1.20;99.90;;;;;;5018604;28;20056;-65
2021/04/07 02:01:42;;;;;;;3.45;0.50;;;1.20;99.90;;;;;;5003190;28;20048;-64
2021/04/07 02:04:08;;;;;;;11.23;1.30;;;1.20;99.90;;;;;;5016089;28;20041;-65
2021/04/07 02:06:33;;;;;;;5.00;0.63;;;1.30;99.90;;;;;;5018277;28;20091;-65
2021/04/07 02:08:59;;;;;;;5.70;1.00;;;1.40;99.90;;;;;;5023089;28;20033;-65
2021/04/07 02:11:25;;;;;;;6.97;0.80;;;1.50;99.90;;;;;;5017426;28;20411;-65
2021/04/07 02:13:52;;;;;;;7.95;1.38;;;1.50;99.90;;;;;;5016442;28;20030;-64
2021/04/07 02:16:17;;;;;;;8.18;1.13;;;1.50;99.90;;;;;;5018364;28;20113;-65
2021/04/07 02:18:43;;;;;;;8.18;0.93;;;1.50;99.90;;;;;;5019625;28;20530;-64
2021/04/07 02:21:10;;;;;;;6.00;0.43;;;1.40;99.90;;;;;;5018443;28;20042;-65
2021/04/07 02:23:35;;;;;;;9.52;0.95;;;1.40;99.90;;;;;;5024591;28;20030;-64
2021/04/07 02:26:03;;;;;;;3.90;0.90;;;1.40;99.90;;;;;;5019565;28;20483;-65
2021/04/07 02:28:29;;;;;;;4.10;0.40;;;1.40;99.90;;;;;;5014179;28;20854;-64
2021/04/07 02:30:54;;;;;;;4.57;0.28;;;1.40;99.90;;;;;;5018583;28;20068;-63
2021/04/07 02:33:20;;;;;;;3.28;0.70;;;1.40;99.90;;;;;;5018402;28;20038;-65
2021/04/07 02:35:46;;;;;;;5.35;0.63;;;1.40;99.90;;;;;;5015994;28;20030;-66
2021/04/07 02:38:12;;;;;;;6.47;0.55;;;1.40;99.90;;;;;;5013567;28;20498;-65
2021/04/07 02:40:37;;;;;;;8.55;0.82;;;1.40;99.90;;;;;;5018472;28;20075;-65
2021/04/07 02:43:03;;;;;;;6.63;0.98;;;1.40;99.90;;;;;;5020446;28;20040;-64
2021/04/07 02:45:29;;;;;;;4.53;1.13;;;1.50;99.90;;;;;;5016920;28;20021;-65
2021/04/07 02:47:55;;;;;;;5.65;0.50;;;1.50;99.90;;;;;;5018644;28;20397;-66
2021/04/07 02:50:20;;;;;;;8.23;0.90;;;1.50;99.90;;;;;;5017805;28;20038;-65
2021/04/07 02:52:46;;;;;;;9.00;1.20;;;1.60;99.90;;;;;;5020299;28;20030;-65
2021/04/07 02:55:12;;;;;;;15.88;1.60;;;1.60;99.90;;;;;;5020351;28;20118;-64
2021/04/07 02:57:37;;;;;;;7.00;0.80;;;1.70;99.90;;;;;;5017036;28;20026;-66
2021/04/07 03:00:06;;;;;;;17.02;1.75;;;1.60;99.90;;;;;;5013204;28;20372;-65
2021/04/07 03:02:31;;;;;;;4.95;1.05;;;1.70;99.90;;;;;;4996291;28;20487;-66
2021/04/07 03:04:57;;;;;;;10.27;1.15;;;1.80;99.90;;;;;;5017005;28;20048;-65
2021/04/07 03:07:23;;;;;;;10.82;1.52;;;1.80;99.90;;;;;;5017029;28;20040;-64
2021/04/07 03:09:49;;;;;;;8.90;1.05;;;1.90;99.90;;;;;;5019820;28;20044;-64
2021/04/07 03:12:15;;;;;;;6.95;1.45;;;1.90;99.90;;;;;;5017590;28;20038;-63
2021/04/07 03:14:40;;;;;;;7.50;1.17;;;1.90;99.90;;;;;;5019289;28;20040;-66
2021/04/07 03:17:06;;;;;;;4.63;1.02;;;1.80;99.90;;;;;;5013565;28;20049;-65
2021/04/07 03:19:31;;;;;;;8.05;0.68;;;1.90;99.90;;;;;;5014653;28;20041;-65
2021/04/07 03:21:57;;;;;;;7.03;1.33;;;1.80;99.90;;;;;;5001105;28;20458;-64
2021/04/07 03:24:22;;;;;;;5.60;0.50;;;1.70;99.90;;;;;;5030680;28;20029;-66
2021/04/07 03:26:48;;;;;;;11.35;1.27;;;1.70;99.90;;;;;;5037145;28;20049;-66
2021/04/07 03:29:13;;;;;;;8.68;1.23;;;1.60;99.90;;;;;;5032468;28;20037;-62
2021/04/07 03:31:39;;;;;;;7.45;0.60;;;1.70;99.90;;;;;;5027457;28;20033;-66
2021/04/07 03:34:05;;;;;;;11.02;1.77;;;1.70;99.90;;;;;;5019203;28;20048;-66
2021/04/07 03:36:30;;;;;;;3.85;0.55;;;1.70;99.90;;;;;;5015330;28;20116;-66
2021/04/07 03:38:56;;;;;;;13.02;1.90;;;1.70;99.90;;;;;;5017314;28;20029;-65
2021/04/07 03:41:21;;;;;;;3.92;0.98;;;1.70;99.90;;;;;;5018113;28;20044;-62
2021/04/07 03:43:47;;;;;;;7.70;0.88;;;1.70;99.90;;;;;;4999808;28;20676;-66
2021/04/07 03:46:15;;;;;;;7.28;0.95;;;1.70;99.90;;;;;;4997615;28;20132;-66
2021/04/07 03:48:41;;;;;;;7.13;1.30;;;1.70;99.90;;;;;;5015022;28;20041;-66
2021/04/07 03:51:06;;;;;;;5.72;1.00;;;1.70;99.90;;;;;;5019586;28;20038;-65
2021/04/07 03:53:32;;;;;;;10.50;1.15;;;1.60;99.90;;;;;;5015640;28;20230;-66
2021/04/07 03:55:57;;;;;;;5.18;0.88;;;1.70;99.90;;;;;;5018574;28;20052;-66
2021/04/07 03:58:24;;;;;;;4.63;0.90;;;1.60;99.90;;;;;;5016310;28;20108;-65
2021/04/07 04:00:51;;;;;;;4.63;1.05;;;1.60;99.90;;;;;;5001247;28;20452;-65
2021/04/07 04:03:16;;;;;;;7.13;0.68;;;1.60;99.90;;;;;;5017245;28;20049;-65
2021/04/07 04:05:42;;;;;;;11.35;0.95;;;1.60;99.90;;;;;;4997296;28;20041;-66
2021/04/07 04:08:09;;;;;;;6.90;2.00;;;1.50;99.90;;;;;;5015210;28;20407;-65
2021/04/07 04:10:35;;;;;;;7.45;0.98;;;1.50;99.90;;;;;;5000139;28;20026;-64
2021/04/07 04:13:03;;;;;;;7.47;1.20;;;1.50;99.90;;;;;;5017144;28;20567;-66
2021/04/07 04:15:29;;;;;;;7.55;0.98;;;1.40;99.90;;;;;;5019158;28;20033;-66
2021/04/07 04:17:54;;;;;;;2.58;0.52;;;1.40;99.90;;;;;;5013222;28;20030;-65
2021/04/07 04:20:20;;;;;;;3.85;0.80;;;1.40;99.90;;;;;;4999383;28;20078;-65
2021/04/07 04:22:46;;;;;;;5.82;0.55;;;1.40;99.90;;;;;;5017967;28;20065;-64
2021/04/07 04:25:15;;;;;;;8.90;1.10;;;1.40;99.90;;;;;;5016898;28;20391;-64
2021/04/07 04:27:40;;;;;;;7.32;1.23;;;1.40;99.90;;;;;;5018562;28;20041;-63
2021/04/07 04:30:11;;;;;;;5.18;0.98;;;1.40;99.90;;;;;;5013702;28;20052;-64
2021/04/07 04:32:37;;;;;;;7.65;0.98;;;1.40;99.90;;;;;;5002037;28;20041;-64
2021/04/07 04:35:04;;;;;;;5.90;1.80;;;1.30;99.90;;;;;;5000084;28;20034;-62
2021/04/07 04:37:30;;;;;;;5.90;0.60;;;1.30;99.90;;;;;;5000369;28;20029;-65
2021/04/07 04:39:55;;;;;;;6.78;0.50;;;1.30;99.90;;;;;;5019708;28;20022;-63
2021/04/07 04:42:21;;;;;;;5.30;0.93;;;1.30;99.90;;;;;;5002775;28;20045;-62
2021/04/07 04:44:46;;;;;;;10.90;0.98;;;1.30;99.90;;;;;;5021847;28;20021;-63
2021/04/07 04:47:12;;;;;;;5.30;1.00;;;1.20;99.90;;;;;;5017822;28;20045;-63
2021/04/07 04:49:38;;;;;;;7.88;1.10;;;1.20;99.90;;;;;;5002081;28;20030;-63
2021/04/07 04:52:04;;;;;;;4.20;1.20;;;1.20;99.90;;;;;;5018672;28;20073;-62
2021/04/07 04:54:29;;;;;;;8.60;1.73;;;1.30;99.90;;;;;;5015539;28;20088;-63
2021/04/07 04:56:55;;;;;;;6.68;1.10;;;1.20;99.90;;;;;;5022364;28;20034;-63
2021/04/07 04:59:20;;;;;;;5.43;1.02;;;1.10;99.90;;;;;;5001252;28;20041;-62
2021/04/07 05:01:46;;;;;;;9.95;1.10;;;1.20;99.90;;;;;;5016331;28;20036;-62
2021/04/07 05:04:11;;;;;;;10.25;1.13;;;1.20;99.90;;;;;;5017587;28;20030;-60
2021/04/07 05:06:38;;;;;;;3.58;0.73;;;1.10;99.90;;;;;;5022879;28;20041;-60
2021/04/07 05:09:04;;;;;;;7.85;0.95;;;1.20;99.90;;;;;;5019192;28;20449;-60
2021/04/07 05:11:33;;;;;;;8.23;1.20;;;1.20;99.90;;;;;;5025824;28;20593;-59
2021/04/07 05:14:03;;;;;;;8.48;1.15;;;1.10;99.90;;;;;;5017792;28;20022;-60
2021/04/07 05:16:31;;;;;;;11.77;1.52;;;1.20;99.90;;;;;;5021833;28;20471;-62
2021/04/07 05:18:57;;;;;;;18.95;1.85;;;1.20;99.90;;;;;;5024058;28;20029;-62
2021/04/07 05:21:22;;;;;;;20.88;1.42;;;1.30;99.90;;;;;;5020727;28;20045;-59
2021/04/07 05:23:48;;;;;;;18.83;2.75;;;1.40;99.90;;;;;;5020015;28;20092;-60
2021/04/07 05:26:13;;;;;;;11.77;2.25;;;1.40;99.90;;;;;;5026902;28;20111;-61
2021/04/07 05:28:41;;;;;;;18.98;2.03;;;1.50;99.90;;;;;;5028096;28;20092;-61
2021/04/07 05:31:10;;;;;;;22.55;3.10;;;1.60;99.90;;;;;;5006906;28;20045;-60
2021/04/07 05:33:38;;;;;;;25.70;3.33;;;1.70;99.90;;;;;;5021317;28;20794;-60
2021/04/07 05:36:07;;;;;;;27.42;3.85;;;2.00;99.90;;;;;;5021959;28;20048;-62
2021/04/07 05:38:33;;;;;;;33.67;3.60;;;2.30;99.90;;;;;;5007143;28;20033;-61
2021/04/07 05:41:00;;;;;;;26.73;3.35;;;2.50;99.90;;;;;;5018968;28;20107;-61
2021/04/07 05:43:27;;;;;;;30.92;2.90;;;2.80;99.90;;;;;;5021996;28;20029;-62
2021/04/07 05:45:53;;;;;;;17.17;2.55;;;2.90;99.90;;;;;;5026277;28;20041;-63
2021/04/07 05:48:19;;;;;;;30.70;3.47;;;3.20;99.90;;;;;;5018949;28;20044;-63
2021/04/07 05:50:47;;;;;;;31.92;4.28;;;3.20;99.90;;;;;;4997517;28;20033;-63
2021/04/07 05:53:13;;;;;;;18.15;2.58;;;3.40;99.90;;;;;;5026088;28;20029;-65
2021/04/07 05:55:43;;;;;;;22.02;4.55;;;3.50;99.90;;;;;;5025457;28;20034;-67
2021/04/07 05:58:10;;;;;;;24.83;3.78;;;3.50;99.90;;;;;;5004844;28;20410;-65
2021/04/07 06:00:35;;;;;;;26.08;4.60;;;3.60;99.90;;;;;;5020981;28;20078;-65
2021/04/07 06:03:03;;;;;;;17.90;2.40;;;3.70;99.90;;;;;;5021590;28;20207;-65
2021/04/07 06:05:29;;;;;;;20.33;3.38;;;3.80;99.90;;;;;;5019539;28;20041;-65
2021/04/07 06:07:55;;;;;;;15.18;2.88;;;3.80;99.90;;;;;;5019976;28;20463;-66
2021/04/07 06:10:21;;;;;;;15.32;2.42;;;3.90;99.90;;;;;;5005041;28;20057;-64
2021/04/07 06:12:47;;;;;;;10.40;1.73;;;3.90;99.90;;;;;;5022121;28;20060;-64
2021/04/07 06:15:13;;;;;;;18.33;2.28;;;3.90;99.90;;;;;;5016841;28;20058;-65
2021/04/07 06:17:41;;;;;;;12.48;1.75;;;4.00;99.90;;;;;;5021241;28;20040;-64
2021/04/07 06:20:08;;;;;;;23.17;3.80;;;4.00;99.90;;;;;;5020105;28;20560;-64
2021/04/07 06:22:34;;;;;;;11.80;1.63;;;4.00;99.90;;;;;;5023259;28;20039;-66
2021/04/07 06:25:01;;;;;;;26.02;3.45;;;4.10;99.90;;;;;;5007140;28;20041;-65
2021/04/07 06:27:27;;;;;;;23.33;2.00;;;4.00;99.90;;;;;;5009741;28;20038;-64
2021/04/07 06:29:52;;;;;;;16.90;2.25;;;4.10;99.90;;;;;;5021900;28;20084;-65
2021/04/07 06:32:18;;;;;;;14.73;2.22;;;4.10;99.90;;;;;;5024845;28;20092;-65
2021/04/07 06:34:44;;;;;;;27.50;5.30;;;4.10;99.90;;;;;;5019596;28;20052;-64
2021/04/07 06:37:09;;;;;;;24.70;4.47;;;4.20;99.90;;;;;;5025983;28;20034;-64
2021/04/07 06:39:35;;;;;;;19.85;3.33;;;4.30;99.90;;;;;;5006056;28;20041;-66
2021/04/07 06:42:00;;;;;;;26.30;4.05;;;4.30;99.90;;;;;;5023672;28;20076;-64
2021/04/07 06:44:26;;;;;;;26.08;4.97;;;4.40;99.90;;;;;;5020455;28;20120;-64
2021/04/07 06:46:55;;;;;;;38.38;5.70;;;4.40;99.90;;;;;;5023240;28;20045;-65
2021/04/07 06:49:23;;;;;;;32.45;5.10;;;4.40;99.90;;;;;;5025960;28;20026;-65
2021/04/07 06:51:52;;;;;;;21.88;5.15;;;4.50;99.90;;;;;;5003857;28;20034;-66
2021/04/07 06:54:21;;;;;;;12.20;1.73;;;4.40;99.90;;;;;;5019179;28;20034;-66
2021/04/07 06:56:47;;;;;;;8.02;1.02;;;4.30;99.90;;;;;;5024326;28;20033;-66
2021/04/07 06:59:14;;;;;;;9.63;1.48;;;4.20;99.90;;;;;;5016522;28;20041;-67
2021/04/07 07:01:39;;;;;;;11.02;1.35;;;4.10;99.90;;;;;;5021028;28;20052;-66
2021/04/07 07:04:05;;;;;;;8.82;1.92;;;4.00;99.90;;;;;;5021965;28;20038;-66
2021/04/07 07:06:31;;;;;;;14.57;1.42;;;4.00;99.90;;;;;;5029826;28;20080;-62
2021/04/07 07:08:57;;;;;;;8.75;1.20;;;4.00;99.90;;;;;;5026250;28;20026;-65
2021/04/07 07:11:22;;;;;;;6.95;1.00;;;4.00;99.90;;;;;;5024488;28;20498;-65
2021/04/07 07:13:50;;;;;;;17.75;3.50;;;4.00;99.90;;;;;;5009587;28;20027;-67
2021/04/07 07:16:35;;;;;;;10.20;1.52;;;4.00;99.90;;;;;;5006724;28;20041;-64
2021/04/07 07:19:01;;;;;;;18.10;2.08;;;4.10;99.90;;;;;;5016353;28;20048;-69
2021/04/07 07:21:26;;;;;;;20.52;2.30;;;4.10;99.90;;;;;;5018784;28;20030;-67
2021/04/07 07:23:52;;;;;;;18.67;2.10;;;4.10;99.90;;;;;;5003297;28;20061;-67
2021/04/07 07:26:20;;;;;;;21.02;2.60;;;4.30;99.90;;;;;;5016103;28;20104;-66
2021/04/07 07:28:58;;;;;;;19.60;3.40;;;4.40;99.90;;;;;;5019693;28;20041;-65
2021/04/07 07:31:29;;;;;;;17.15;2.63;;;4.50;99.90;;;;;;5021375;28;20037;-67
2021/04/07 07:33:58;;;;;;;20.83;3.70;;;4.70;99.90;;;;;;5017180;28;20498;-63
2021/04/07 07:36:25;;;;;;;23.25;3.35;;;4.80;99.90;;;;;;5015845;28;20406;-66
2021/04/07 07:38:53;;;;;;;22.75;4.72;;;4.90;99.90;;;;;;5017591;28;20038;-66
2021/04/07 07:41:29;;;;;;;26.00;4.28;;;5.10;99.90;;;;;;5001012;28;20041;-65
2021/04/07 07:43:54;;;;;;;26.50;4.35;;;5.20;99.90;;;;;;5017711;28;20061;-65
2021/04/07 07:46:27;;;;;;;20.05;2.58;;;5.20;99.90;;;;;;5023389;28;20520;-66
2021/04/07 07:48:52;;;;;;;20.25;3.50;;;5.20;99.90;;;;;;5016538;28;20038;-65
2021/04/07 07:51:23;;;;;;;33.70;3.92;;;5.20;99.90;;;;;;5020289;28;20030;-66
2021/04/07 07:53:50;;;;;;;22.35;3.05;;;5.10;99.90;;;;;;5019314;28;20044;-66
2021/04/07 07:56:20;;;;;;;31.33;3.15;;;5.10;99.90;;;;;;5001089;28;20053;-66
2021/04/07 07:58:50;;;;;;;24.27;3.25;;;5.20;99.90;;;;;;5001418;28;20036;-66
2021/04/07 08:01:17;;;;;;;24.20;3.70;;;5.30;99.90;;;;;;5017325;28;20578;-66
2021/04/07 08:03:44;;;;;;;22.33;3.50;;;5.40;99.90;;;;;;5002628;28;20116;-66
2021/04/07 08:06:11;;;;;;;27.08;3.60;;;5.40;99.90;;;;;;5017292;28;20045;-66
2021/04/07 08:08:37;;;;;;;25.10;3.92;;;5.30;99.90;;;;;;5006549;28;20080;-66
2021/04/07 08:11:04;;;;;;;34.03;4.80;;;5.30;99.90;;;;;;5004258;28;20041;-66
2021/04/07 08:13:35;;;;;;;29.98;3.83;;;5.40;99.90;;;;;;5021405;28;20030;-66
2021/04/07 08:16:02;;;;;;;19.75;3.83;;;5.40;99.90;;;;;;5017665;28;20038;-67
2021/04/07 08:18:29;;;;;;;15.95;2.33;;;5.50;99.90;;;;;;5022447;28;20037;-62
2021/04/07 08:20:56;;;;;;;21.88;3.03;;;5.70;99.90;;;;;;5024386;28;20414;-66
2021/04/07 08:23:23;;;;;;;26.35;2.75;;;5.70;99.90;;;;;;5023957;28;20040;-66
2021/04/07 08:25:54;;;;;;;17.65;2.78;;;5.70;99.90;;;;;;5018377;28;20045;-66
2021/04/07 08:28:21;;;;;;;14.90;2.35;;;5.70;99.90;;;;;;5019328;28;20475;-66
2021/04/07 08:30:47;;;;;;;20.10;2.90;;;5.80;99.90;;;;;;5002118;28;20022;-64
2021/04/07 08:33:13;;;;;;;27.83;4.32;;;5.80;99.90;;;;;;5019968;28;20700;-66
2021/04/07 08:35:39;;;;;;;21.98;2.92;;;5.90;99.90;;;;;;5006901;28;20071;-65
2021/04/07 08:38:06;;;;;;;26.38;4.22;;;6.00;99.90;;;;;;5015494;28;20030;-65
2021/04/07 08:40:50;;;;;;;18.45;4.20;;;6.10;99.90;;;;;;5023336;28;20402;-66
2021/04/07 08:43:16;;;;;;;19.83;3.30;;;6.30;99.90;;;;;;5021657;28;20052;-66
2021/04/07 08:45:47;;;;;;;32.38;3.67;;;6.40;99.90;;;;;;5021644;28;20022;-67
2021/04/07 08:48:22;;;;;;;23.70;3.25;;;6.50;99.90;;;;;;5026007;28;20041;-66
2021/04/07 08:51:01;;;;;;;18.77;2.97;;;6.40;99.90;;;;;;5025063;28;20029;-65
2021/04/07 08:53:30;;;;;;;20.83;3.28;;;6.30;99.90;;;;;;5001970;28;20060;-66
2021/04/07 08:55:56;;;;;;;22.13;4.53;;;6.40;99.90;;;;;;5005588;28;20548;-66
2021/04/07 08:58:24;;;;;;;19.08;2.97;;;6.50;99.90;;;;;;5020903;28;20037;-65
2021/04/07 09:00:55;;;;;;;24.92;4.13;;;6.70;99.90;;;;;;5021241;28;20665;-67
2021/04/07 09:03:25;;;;;;;24.23;4.18;;;6.90;99.90;;;;;;5001280;28;20034;-65
2021/04/07 09:05:52;;;;;;;14.93;2.83;;;7.10;99.90;;;;;;5006107;28;20498;-66
2021/04/07 09:08:27;;;;;;;19.10;4.00;;;7.20;99.90;;;;;;5019247;28;20040;-67
2021/04/07 09:10:54;;;;;;;23.55;5.18;;;7.20;99.90;;;;;;5022051;28;20025;-67
2021/04/07 09:13:24;;;;;;;21.88;3.08;;;7.30;99.90;;;;;;5021320;28;20041;-67
2021/04/07 09:16:04;;;;;;;18.05;2.63;;;7.40;99.90;;;;;;5003363;28;20094;-66
2021/04/07 09:18:42;;;;;;;30.45;6.70;;;7.30;99.90;;;;;;5002478;28;20454;-65
2021/04/07 09:21:09;;;;;;;19.05;4.57;;;7.30;99.90;;;;;;5016926;28;20042;-69
2021/04/07 09:23:36;;;;;;;27.88;5.22;;;7.40;99.90;;;;;;5024059;28;20036;-67
2021/04/07 09:26:12;;;;;;;12.80;2.00;;;7.50;99.90;;;;;;5021717;28;20038;-66
2021/04/07 09:28:41;;;;;;;13.18;1.80;;;7.70;99.90;;;;;;5002152;28;20029;-65
2021/04/07 09:31:10;;;;;;;20.90;3.38;;;7.90;99.90;;;;;;5020320;28;20113;-67
2021/04/07 09:33:38;;;;;;;18.13;3.05;;;8.00;99.90;;;;;;5002050;28;20034;-66
2021/04/07 09:36:04;;;;;;;15.18;3.28;;;7.90;99.90;;;;;;5021246;28;20405;-67
2021/04/07 09:38:31;;;;;;;16.30;2.33;;;7.80;99.90;;;;;;5022769;28;20064;-67
2021/04/07 09:41:08;;;;;;;15.85;2.83;;;7.90;99.90;;;;;;5021620;28;20041;-65
2021/04/07 09:43:35;;;;;;;13.60;2.53;;;7.90;99.90;;;;;;5005095;28;20034;-67
2021/04/07 09:46:00;;;;;;;26.73;2.65;;;7.80;99.90;;;;;;5016659;28;20612;-65
2021/04/07 09:48:37;;;;;;;17.77;4.05;;;7.60;99.90;;;;;;5019239;28;20029;-67
2021/04/07 09:51:39;;;;;;;17.58;4.28;;;7.40;99.90;;;;;;5017121;28;20411;-66
2021/04/07 09:54:16;;;;;;;16.92;3.13;;;7.30;99.90;;;;;;5012069;28;20029;-63
2021/04/07 09:56:48;;;;;;;17.15;2.55;;;7.40;99.90;;;;;;5020062;28;20038;-66
2021/04/07 09:59:15;;;;;;;9.95;2.00;;;7.50;99.90;;;;;;5022990;28;20037;-66
2021/04/07 10:01:41;;;;;;;9.75;1.63;;;7.50;99.90;;;;;;5022188;28;20088;-66
2021/04/07 10:04:07;;;;;;;12.15;1.77;;;7.10;99.90;;;;;;5023483;28;20038;-67
2021/04/07 10:06:33;;;;;;;15.35;1.88;;;6.80;99.90;;;;;;5024059;28;20045;-67
2021/04/07 10:09:07;;;;;;;12.27;2.67;;;6.70;99.90;;;;;;5006578;28;20120;-67
2021/04/07 10:11:41;;;;;;;20.52;2.90;;;6.60;99.90;;;;;;5015638;28;20045;-67
2021/04/07 10:14:08;;;;;;;11.85;1.77;;;6.50;99.90;;;;;;5025196;28;20433;-66
2021/04/07 10:16:36;;;;;;;19.58;2.70;;;6.60;99.90;;;;;;5017056;28;20041;-67
2021/04/07 10:19:06;;;;;;;15.88;2.63;;;6.50;99.90;;;;;;5016808;28;20129;-67
2021/04/07 10:21:31;;;;;;;14.90;2.33;;;6.50;99.90;;;;;;5001777;28;20124;-65
2021/04/07 10:23:59;;;;;;;12.63;2.88;;;6.60;99.90;;;;;;5020432;28;20575;-65
2021/04/07 10:26:25;;;;;;;21.40;2.88;;;6.80;99.90;;;;;;5019475;28;20072;-65
2021/04/07 10:29:01;;;;;;;18.83;2.58;;;7.00;99.90;;;;;;5019110;28;20026;-67
2021/04/07 10:31:28;;;;;;;13.20;2.10;;;7.20;99.90;;;;;;5020812;28;20655;-67
2021/04/07 10:34:04;;;;;;;23.17;2.95;;;7.30;99.90;;;;;;5004189;28;20402;-66
2021/04/07 10:36:30;;;;;;;21.63;2.10;;;7.30;99.90;;;;;;5021869;28;20033;-66
2021/04/07 10:39:13;;;;;;;25.10;4.07;;;7.10;99.90;;;;;;5020347;28;20367;-66
2021/04/07 10:41:39;;;;;;;15.63;2.05;;;7.10;99.90;;;;;;5005711;28;20045;-65
2021/04/07 10:44:07;;;;;;;9.50;1.90;;;7.10;99.90;;;;;;5027821;28;20038;-66
2021/04/07 10:46:33;;;;;;;11.18;1.85;;;7.20;99.90;;;;;;5036356;28;20091;-66
2021/04/07 10:48:58;;;;;;;17.35;2.40;;;7.30;99.90;;;;;;5031134;28;20033;-67
2021/04/07 10:51:31;;;;;;;13.80;1.23;;;7.50;99.90;;;;;;5015828;28;20030;-66
2021/04/07 10:53:58;;;;;;;5.65;0.93;;;7.60;99.90;;;;;;5022365;28;20029;-67
2021/04/07 10:56:26;;;;;;;13.82;1.45;;;7.60;99.90;;;;;;5017413;28;20109;-67
2021/04/07 10:59:01;;;;;;;10.10;1.25;;;7.50;99.90;;;;;;5020650;28;20029;-67
2021/04/07 11:01:32;;;;;;;9.80;1.35;;;7.40;99.90;;;;;;5020537;28;20040;-67
2021/04/07 11:03:58;;;;;;;6.00;1.08;;;7.30;99.90;;;;;;5019176;28;20036;-67
2021/04/07 11:06:25;;;;;;;12.75;1.52;;;7.20;99.90;;;;;;5026032;28;20132;-66
2021/04/07 11:08:52;;;;;;;8.48;1.55;;;7.10;99.90;;;;;;5008505;28;20038;-66
2021/04/07 11:11:25;;;;;;;10.93;1.73;;;7.20;99.90;;;;;;5021662;28;20045;-66
2021/04/07 11:13:53;;;;;;;10.25;1.50;;;7.20;99.90;;;;;;5019742;28;20030;-66
2021/04/07 11:16:19;;;;;;;10.27;2.42;;;7.10;99.90;;;;;;5016999;28;20068;-67
2021/04/07 11:18:45;;;;;;;17.80;2.30;;;7.00;99.90;;;;;;5014915;28;20106;-67
2021/04/07 11:21:13;;;;;;;4.70;1.30;;;7.10;99.90;;;;;;5020713;28;20061;-66
2021/04/07 11:23:38;;;;;;;23.55;4.03;;;7.20;99.90;;;;;;5018837;28;20049;-66
2021/04/07 11:26:07;;;;;;;11.07;1.50;;;7.50;99.90;;;;;;5019747;28;20030;-66
2021/04/07 11:28:33;;;;;;;9.68;1.35;;;7.70;99.90;;;;;;5017395;28;20022;-67
2021/04/07 11:31:22;;;;;;;23.55;2.58;;;7.90;99.90;;;;;;5023177;28;20037;-66
2021/04/07 11:33:50;;;;;;;10.82;2.00;;;8.00;99.90;;;;;;5019838;28;20026;-66
2021/04/07 11:38:59;;;;;;;14.82;1.33;;;8.20;99.90;;;;;;5019310;28;20053;-66
2021/04/07 11:46:38;;;;;;;16.05;2.20;;;8.30;99.90;;;;;;5020826;28;20025;-66
2021/04/07 11:49:05;;;;;;;8.10;1.42;;;8.30;99.90;;;;;;5004808;28;20029;-66
2021/04/07 11:51:33;;;;;;;15.65;1.88;;;8.30;99.90;;;;;;4997039;28;20061;-66
2021/04/07 11:53:58;;;;;;;7.78;2.38;;;8.40;99.90;;;;;;5019038;28;20061;-67
2021/04/07 11:56:24;;;;;;;9.00;2.45;;;8.30;99.90;;;;;;5021695;28;20491;-66
2021/04/07 11:58:50;;;;;;;11.15;2.05;;;8.10;99.90;;;;;;5021485;28;20443;-66
2021/04/07 12:01:15;;;;;;;11.43;2.25;;;8.10;99.90;;;;;;5004543;28;20030;-66
2021/04/07 12:03:43;;;;;;;8.82;1.05;;;8.10;99.90;;;;;;5020777;28;20037;-66
2021/04/07 12:06:08;;;;;;;7.97;1.45;;;8.10;99.90;;;;;;5006769;28;20050;-67
2021/04/07 12:08:34;;;;;;;9.15;1.13;;;8.20;99.90;;;;;;5022635;28;20114;-66
2021/04/07 12:11:00;;;;;;;7.75;1.20;;;8.30;99.90;;;;;;5022628;28;20380;-66
2021/04/07 12:13:26;;;;;;;10.65;1.25;;;8.30;99.90;;;;;;4998860;28;20410;-66
2021/04/07 12:15:52;;;;;;;14.25;1.23;;;8.10;99.90;;;;;;5018639;28;20032;-66
2021/04/07 12:18:18;;;;;;;5.70;1.65;;;7.90;99.90;;;;;;5020960;28;20457;-66
2021/04/07 12:20:44;;;;;;;12.20;1.52;;;8.00;99.90;;;;;;5022292;28;20083;-66
2021/04/07 12:23:10;;;;;;;13.68;1.40;;;8.10;99.90;;;;;;5004990;28;20030;-66
2021/04/07 12:25:36;;;;;;;7.57;1.75;;;8.00;99.90;;;;;;5020527;28;20037;-66
2021/04/07 12:28:01;;;;;;;13.80;1.10;;;8.00;99.90;;;;;;5021086;28;20033;-66
2021/04/07 12:30:27;;;;;;;10.23;1.15;;;7.80;99.90;;;;;;5015759;28;20080;-66
2021/04/07 12:32:53;;;;;;;13.85;2.45;;;7.50;99.90;;;;;;5024793;28;20056;-66
2021/04/07 12:35:19;;;;;;;19.13;2.08;;;6.90;99.90;;;;;;5014876;28;20751;-65
2021/04/07 12:37:44;;;;;;;9.20;1.80;;;6.20;99.90;;;;;;5018661;28;20038;-65
2021/04/07 12:40:14;;;;;;;10.75;1.73;;;5.80;99.90;;;;;;5019398;28;20023;-66
2021/04/07 12:42:39;;;;;;;14.15;2.75;;;5.50;99.90;;;;;;5019767;28;20022;-66
2021/04/07 12:45:07;;;;;;;10.25;1.20;;;5.40;99.90;;;;;;5020455;28;20033;-66
2021/04/07 12:47:33;;;;;;;12.73;2.00;;;5.50;99.90;;;;;;5019332;28;20091;-66
2021/04/07 12:49:58;;;;;;;10.35;1.73;;;5.70;99.90;;;;;;5021972;28;20045;-66
2021/04/07 12:52:24;;;;;;;13.48;2.13;;;5.80;99.90;;;;;;5019057;28;20481;-66
2021/04/07 12:54:49;;;;;;;15.45;2.20;;;6.10;99.90;;;;;;5023872;28;20044;-66
2021/04/07 12:57:16;;;;;;;12.98;2.15;;;6.20;99.90;;;;;;5006890;28;21433;-65
2021/04/07 12:59:41;;;;;;;12.68;1.58;;;6.40;99.90;;;;;;5020274;28;20120;-66